Time;durP1;ratioP1;P1;durP2;ratioP2;P2;SDS_P1;SDS_P2;PMS_P1;PMS_P2;Temp;Humidity;BMP_temperature;BMP_pressure;BME280_temperature;BME280_humidity;BME280_pressure;Samples;Min_cycle;Max_cycle;Signal;HPM_P1;HPM_P2
2022/12/16 00:02:20;;;;;;;12.38;2.83;;;;;;;;;;4966596;28;19928;-66
2022/12/16 00:04:46;;;;;;;12.93;2.80;;;;;;;;;;4974603;28;20064;-66
2022/12/16 00:07:12;;;;;;;15.38;2.70;;;;;;;;;;4972795;28;20029;-65
2022/12/16 00:09:38;;;;;;;14.52;2.72;;;;;;;;;;4969937;28;20038;-65
2022/12/16 00:12:05;;;;;;;10.27;2.58;;;;;;;;;;4971898;28;20440;-66
2022/12/16 00:14:31;;;;;;;10.98;2.80;;;;;;;;;;4974773;28;20690;-66
2022/12/16 00:16:57;;;;;;;;;;;;;;;;;;4984116;28;20030;-65
2022/12/16 00:19:23;;;;;;;10.80;2.83;;;;;;;;;;4979243;28;20367;-66
2022/12/16 00:21:50;;;;;;;9.25;2.60;;;;;;;;;;4982851;28;20026;-66
2022/12/16 00:24:16;;;;;;;13.57;3.38;;;;;;;;;;4982825;28;20338;-65
2022/12/16 00:26:42;;;;;;;13.80;3.08;;;;;;;;;;4974640;28;20085;-65
2022/12/16 00:29:10;;;;;;;12.02;3.42;;;;;;;;;;4983976;28;20317;-66
2022/12/16 00:31:36;;;;;;;11.23;3.33;;;;;;;;;;4972818;28;21943;-66
2022/12/16 00:34:02;;;;;;;13.45;3.25;;;;;;;;;;4979038;28;20040;-65
2022/12/16 00:36:28;;;;;;;10.68;3.47;;;;;;;;;;4975181;28;20440;-65
2022/12/16 00:38:54;;;;;;;11.55;3.53;;;;;;;;;;4978119;28;20064;-66
2022/12/16 00:41:21;;;;;;;10.27;3.00;;;;;;;;;;4973105;28;20178;-66
2022/12/16 00:43:47;;;;;;;13.43;3.20;;;;;;;;;;4977252;28;20044;-66
2022/12/16 00:46:13;;;;;;;10.27;3.00;;;;;;;;;;4980041;28;20563;-66
2022/12/16 00:48:40;;;;;;;11.93;2.83;;;;;;;;;;4973648;28;20038;-66
2022/12/16 00:51:06;;;;;;;8.82;2.83;;;;;;;;;;4982277;28;20034;-66
2022/12/16 00:53:32;;;;;;;10.75;3.13;;;;;;;;;;4970825;28;20060;-66
2022/12/16 00:56:05;;;;;;;10.20;2.85;;;;;;;;;;4981887;28;20022;-66
2022/12/16 00:58:31;;;;;;;11.98;3.17;;;;;;;;;;4971310;28;20360;-66
2022/12/16 01:00:58;;;;;;;14.38;3.80;;;;;;;;;;4969844;28;20110;-66
2022/12/16 01:03:24;;;;;;;11.68;3.45;;;;;;;;;;4976620;28;20062;-66
2022/12/16 01:05:50;;;;;;;9.82;2.72;;;;;;;;;;4977762;28;20030;-66
2022/12/16 01:08:16;;;;;;;14.05;3.35;;;;;;;;;;4973511;28;20059;-66
2022/12/16 01:10:43;;;;;;;12.75;3.35;;;;;;;;;;4979518;28;20056;-66
2022/12/16 01:13:09;;;;;;;11.38;3.13;;;;;;;;;;4975979;28;20052;-65
2022/12/16 01:15:36;;;;;;;17.38;3.33;;;;;;;;;;4972398;28;20034;-65
2022/12/16 01:18:03;;;;;;;12.57;2.50;;;;;;;;;;4977459;28;20415;-67
2022/12/16 01:20:29;;;;;;;13.77;2.70;;;;;;;;;;4973894;28;20033;-67
2022/12/16 01:22:55;;;;;;;10.80;2.55;;;;;;;;;;4973564;28;20018;-67
2022/12/16 01:25:21;;;;;;;11.25;2.60;;;;;;;;;;4974679;28;20601;-64
2022/12/16 01:27:47;;;;;;;13.45;2.17;;;;;;;;;;4975664;28;20026;-65
2022/12/16 01:30:13;;;;;;;14.18;2.30;;;;;;;;;;4979634;28;20030;-65
2022/12/16 01:32:39;;;;;;;11.30;1.90;;;;;;;;;;4971453;28;20025;-65
2022/12/16 01:35:06;;;;;;;15.80;2.58;;;;;;;;;;4980330;28;20038;-66
2022/12/16 01:37:32;;;;;;;;;;;;;;;;;;4971379;28;20033;-66
2022/12/16 01:39:58;;;;;;;9.80;2.03;;;;;;;;;;4972641;28;19919;-65
2022/12/16 01:42:27;;;;;;;14.82;2.75;;;;;;;;;;4976356;28;20449;-66
2022/12/16 01:44:53;;;;;;;10.32;2.40;;;;;;;;;;4980788;28;20116;-66
2022/12/16 01:47:23;;;;;;;11.15;2.40;;;;;;;;;;4976861;28;20026;-65
2022/12/16 01:50:01;;;;;;;10.32;2.30;;;;;;;;;;4982157;28;20474;-65
2022/12/16 01:52:30;;;;;;;10.00;2.22;;;;;;;;;;4974864;28;20144;-65
2022/12/16 01:54:59;;;;;;;11.95;2.75;;;;;;;;;;4975936;28;20471;-65
2022/12/16 01:57:45;;;;;;;10.30;2.20;;;;;;;;;;4969185;28;20059;-65
2022/12/16 02:00:12;;;;;;;9.60;2.20;;;;;;;;;;4980858;28;20069;-65
2022/12/16 02:02:38;;;;;;;9.48;2.30;;;;;;;;;;4972771;28;20401;-66
2022/12/16 02:05:19;;;;;;;;;;;;;;;;;;4977561;28;20144;-66
2022/12/16 02:07:54;;;;;;;11.77;2.85;;;;;;;;;;4978774;28;20020;-66
2022/12/16 02:10:24;;;;;;;11.27;2.78;;;;;;;;;;4971526;28;20046;-65
2022/12/16 02:13:04;;;;;;;11.73;2.28;;;;;;;;;;4976195;28;20480;-66
2022/12/16 02:15:56;;;;;;;9.48;2.20;;;;;;;;;;4975517;28;20471;-66
2022/12/16 02:18:32;;;;;;;15.30;2.65;;;;;;;;;;4935256;28;20046;-65
2022/12/16 02:21:17;;;;;;;11.83;2.83;;;;;;;;;;4972008;28;20030;-66
2022/12/16 02:23:49;;;;;;;12.48;2.70;;;;;;;;;;4980752;28;20307;-66
2022/12/16 02:26:19;;;;;;;10.48;2.20;;;;;;;;;;4976855;28;20045;-65
2022/12/16 02:28:54;;;;;;;13.05;2.30;;;;;;;;;;4972944;28;20364;-66
2022/12/16 02:31:26;;;;;;;9.90;2.00;;;;;;;;;;4974159;28;20452;-65
2022/12/16 02:34:07;;;;;;;9.93;2.00;;;;;;;;;;4974101;28;20034;-66
2022/12/16 02:36:37;;;;;;;9.57;2.13;;;;;;;;;;4974827;28;20447;-66
2022/12/16 02:39:14;;;;;;;11.32;2.20;;;;;;;;;;4984372;28;20030;-66
2022/12/16 02:41:47;;;;;;;12.68;2.53;;;;;;;;;;4971010;28;20026;-66
2022/12/16 02:44:14;;;;;;;12.27;2.40;;;;;;;;;;4980126;28;20104;-66
2022/12/16 02:46:42;;;;;;;13.77;2.55;;;;;;;;;;4974048;28;20847;-65
2022/12/16 02:49:29;;;;;;;11.00;2.00;;;;;;;;;;4975533;28;20033;-66
2022/12/16 02:51:59;;;;;;;10.77;2.67;;;;;;;;;;4968486;28;20141;-65
2022/12/16 02:54:26;;;;;;;20.63;8.93;;;;;;;;;;4974833;28;20060;-67
2022/12/16 02:56:58;;;;;;;28.63;12.90;;;;;;;;;;4977187;28;21348;-65
2022/12/16 02:59:25;;;;;;;25.73;11.15;;;;;;;;;;4970246;28;20388;-67
2022/12/16 03:02:01;;;;;;;12.15;3.70;;;;;;;;;;4974328;28;20264;-67
2022/12/16 03:04:34;;;;;;;13.55;2.65;;;;;;;;;;4975661;28;20658;-67
2022/12/16 03:07:01;;;;;;;10.93;2.25;;;;;;;;;;4976851;28;20045;-67
2022/12/16 03:09:27;;;;;;;;;;;;;;;;;;4972745;28;20041;-67
2022/12/16 03:11:53;;;;;;;15.65;2.78;;;;;;;;;;4979243;28;19921;-66
2022/12/16 03:14:22;;;;;;;11.30;2.65;;;;;;;;;;4974571;28;20037;-67
2022/12/16 03:16:49;;;;;;;12.10;2.50;;;;;;;;;;4971027;28;20097;-67
2022/12/16 03:19:15;;;;;;;12.23;2.33;;;;;;;;;;4978105;28;20021;-67
2022/12/16 03:21:54;;;;;;;11.18;2.08;;;;;;;;;;4976128;28;20088;-67
2022/12/16 03:24:20;;;;;;;15.25;2.67;;;;;;;;;;4985571;28;20339;-66
2022/12/16 03:27:09;;;;;;;14.82;2.22;;;;;;;;;;4975720;28;20030;-66
2022/12/16 03:29:48;;;;;;;11.77;2.22;;;;;;;;;;4970581;28;20048;-67
2022/12/16 03:32:22;;;;;;;14.65;2.03;;;;;;;;;;4974851;28;20372;-67
2022/12/16 03:34:52;;;;;;;12.27;2.10;;;;;;;;;;4974411;28;20038;-65
2022/12/16 03:37:20;;;;;;;15.55;2.20;;;;;;;;;;4971994;28;20478;-65
2022/12/16 03:39:51;;;;;;;16.98;2.35;;;;;;;;;;4970227;28;20184;-66
2022/12/16 03:42:17;;;;;;;13.45;2.10;;;;;;;;;;4971538;28;20822;-66
2022/12/16 03:44:45;;;;;;;11.93;1.95;;;;;;;;;;4972995;28;20292;-65
2022/12/16 03:47:11;;;;;;;14.68;2.00;;;;;;;;;;4975379;28;20033;-65
2022/12/16 03:49:37;;;;;;;;;;;;;;;;;;4976807;28;20026;-66
2022/12/16 03:52:03;;;;;;;13.18;1.88;;;;;;;;;;4978418;28;19909;-66
2022/12/16 03:54:30;;;;;;;9.80;1.90;;;;;;;;;;4977078;28;20483;-66
2022/12/16 03:56:56;;;;;;;11.15;1.92;;;;;;;;;;4975012;28;20301;-65
2022/12/16 03:59:22;;;;;;;12.98;2.10;;;;;;;;;;4975896;28;20680;-67
2022/12/16 04:01:49;;;;;;;18.50;2.70;;;;;;;;;;4976908;28;20418;-66
2022/12/16 04:04:15;;;;;;;12.73;1.90;;;;;;;;;;4976695;28;20033;-66
2022/12/16 04:06:41;;;;;;;14.52;2.15;;;;;;;;;;4974114;28;20924;-66
2022/12/16 04:09:08;;;;;;;11.75;2.60;;;;;;;;;;4975776;28;20117;-66
2022/12/16 04:25:25;;;;;;;14.52;2.42;;;;;;;;;;4971663;28;20049;-66
2022/12/16 04:27:51;;;;;;;15.80;2.38;;;;;;;;;;4978833;28;20562;-66
2022/12/16 04:30:19;;;;;;;12.13;2.58;;;;;;;;;;4973137;28;20092;-66
